Time;durP1;ratioP1;P1;durP2;ratioP2;P2;SDS_P1;SDS_P2;PMS_P1;PMS_P2;Temp;Humidity;BMP_temperature;BMP_pressure;BME280_temperature;BME280_humidity;BME280_pressure;Samples;Min_cycle;Max_cycle;Signal;HPM_P1;HPM_P2
2023/02/08 00:00:58;;;;;;;;;;;;;;;8.70;41.88;103288.81;4944259;28;117404;-66
2023/02/08 00:03:24;;;;;;;;;;;;;;;8.68;42.19;103283.59;4905743;28;128585;-66
2023/02/08 00:05:50;;;;;;;;;;;;;;;8.68;41.90;103285.44;4924946;28;98128;-67
2023/02/08 00:08:16;;;;;;;;;;;;;;;8.67;42.06;103286.47;4922118;28;126807;-66
2023/02/08 00:10:42;;;;;;;;;;;;;;;8.66;42.48;103285.66;4924250;28;118293;-66
2023/02/08 00:13:08;;;;;;;;;;;;;;;8.65;41.79;103284.00;4897689;28;127634;-66
2023/02/08 00:15:34;;;;;;;;;;;;;;;8.64;42.11;103281.47;4929463;28;127559;-67
2023/02/08 00:18:00;;;;;;;;;;;;;;;8.63;42.21;103283.31;4958932;28;97957;-67
2023/02/08 00:20:25;;;;;;;;;;;;;;;8.62;42.49;103289.72;4958423;28;119303;-67
2023/02/08 00:22:51;;;;;;;;;;;;;;;8.61;42.05;103290.75;4956663;28;128514;-67
2023/02/08 00:25:17;;;;;;;;;;;;;;;8.60;41.99;103286.38;4927063;28;126855;-66
2023/02/08 00:27:43;;;;;;;;;;;;;;;8.59;42.03;103290.09;4945890;28;127674;-66
2023/02/08 00:30:09;;;;;;;;;;;;;;;8.57;42.22;103287.59;4946618;28;117013;-66
2023/02/08 00:32:35;;;;;;;;;;;;;;;8.57;42.14;103284.09;4958660;28;123292;-67
2023/02/08 00:35:01;;;;;;;;;;;;;;;8.57;41.83;103284.91;4922137;28;126559;-66
2023/02/08 00:37:27;;;;;;;;;;;;;;;8.54;41.68;103282.59;4942216;28;124429;-66
2023/02/08 00:39:53;;;;;;;;;;;;;;;8.54;41.90;103287.13;4959372;28;98163;-66
2023/02/08 00:42:19;;;;;;;;;;;;;;;8.52;41.66;103273.84;4940656;28;127665;-67
2023/02/08 00:44:45;;;;;;;;;;;;;;;8.51;42.37;103280.25;4956886;28;98329;-67
2023/02/08 00:47:11;;;;;;;;;;;;;;;8.50;42.28;103283.16;4958102;28;98769;-67
2023/02/08 00:49:37;;;;;;;;;;;;;;;8.49;41.85;103271.56;4920242;28;116519;-67
2023/02/08 00:52:03;;;;;;;;;;;;;;;8.48;42.11;103275.25;4943979;28;122985;-67
2023/02/08 00:54:28;;;;;;;;;;;;;;;8.48;41.94;103274.44;4943575;28;127294;-67
2023/02/08 00:56:54;;;;;;;;;;;;;;;8.47;41.83;103275.44;4942021;28;127996;-67
2023/02/08 00:59:20;;;;;;;;;;;;;;;8.44;41.99;103273.13;4927776;28;117228;-67
2023/02/08 01:01:46;;;;;;;;;;;;;;;8.45;41.88;103274.78;4958812;28;102965;-67
2023/02/08 01:04:12;;;;;;;;;;;;;;;8.42;42.05;103276.00;4928787;28;98037;-67
2023/02/08 01:06:38;;;;;;;;;;;;;;;8.42;42.32;103273.31;4943113;28;127793;-67
2023/02/08 01:09:04;;;;;;;;;;;;;;;8.42;41.93;103272.50;4921966;28;117680;-67
2023/02/08 01:11:30;;;;;;;;;;;;;;;8.41;42.08;103274.34;4941887;28;127732;-67
2023/02/08 01:13:56;;;;;;;;;;;;;;;8.40;42.01;103271.81;4915042;28;124688;-67
2023/02/08 01:16:26;;;;;;;;;;;;;;;8.40;41.92;103271.81;4940358;28;99275;-67
2023/02/08 01:18:53;;;;;;;;;;;;;;;8.38;42.41;103276.56;4922822;28;116451;-67
2023/02/08 01:21:21;;;;;;;;;;;;;;;8.37;41.76;103273.06;4940052;28;127151;-67
2023/02/08 01:23:47;;;;;;;;;;;;;;;8.36;42.54;103268.63;4927143;28;111518;-67
2023/02/08 01:26:14;;;;;;;;;;;;;;;8.35;41.87;103265.13;4923378;28;125096;-67
2023/02/08 01:28:40;;;;;;;;;;;;;;;8.35;42.12;103266.97;4924688;28;98159;-67
2023/02/08 01:31:07;;;;;;;;;;;;;;;8.34;41.50;103270.69;4921822;28;123925;-67
2023/02/08 01:33:32;;;;;;;;;;;;;;;8.34;42.28;103273.38;4925897;28;98887;-67
2023/02/08 01:35:58;;;;;;;;;;;;;;;8.32;42.12;103268.16;4940916;28;123791;-67
2023/02/08 01:38:24;;;;;;;;;;;;;;;8.31;41.60;103271.88;4923905;28;116614;-67
2023/02/08 01:40:50;;;;;;;;;;;;;;;8.31;41.88;103276.44;4906250;28;127478;-69
2023/02/08 01:43:55;;;;;;;;;;;;;;;8.30;42.24;103270.22;4936683;28;128085;-67
2023/02/08 01:46:22;;;;;;;;;;;;;;;8.28;41.86;103266.88;4922559;28;97985;-67
2023/02/08 01:48:47;;;;;;;;;;;;;;;8.27;42.35;103265.22;4905672;28;118414;-68
2023/02/08 01:51:19;;;;;;;;;;;;;;;8.27;41.77;103264.38;4941948;28;128125;-67
2023/02/08 01:53:45;;;;;;;;;;;;;;;8.26;42.20;103263.56;4942449;28;122977;-67
2023/02/08 01:56:22;;;;;;;;;;;;;;;8.26;42.03;103268.94;4924688;28;127342;-67
2023/02/08 01:58:50;;;;;;;;;;;;;;;8.24;42.09;103268.25;4923374;28;116752;-67
2023/02/08 02:01:15;;;;;;;;;;;;;;;8.24;42.11;103267.44;4938454;28;127631;-67
2023/02/08 02:03:42;;;;;;;;;;;;;;;8.22;41.89;103264.13;4939241;28;127811;-67
2023/02/08 02:06:09;;;;;;;;;;;;;;;8.21;41.62;103268.63;4937659;28;127736;-67
2023/02/08 02:08:35;;;;;;;;;;;;;;;8.20;41.78;103266.13;4921556;28;109073;-67
2023/02/08 02:11:01;;;;;;;;;;;;;;;8.21;41.87;103259.72;4938894;28;126544;-67
2023/02/08 02:13:27;;;;;;;;;;;;;;;8.18;42.16;103252.91;4949685;28;128822;-67
2023/02/08 02:15:53;;;;;;;;;;;;;;;8.17;42.25;103256.56;4939424;28;127350;-67
2023/02/08 02:18:27;;;;;;;;;;;;;;;8.17;41.77;103248.50;4939459;28;120183;-67
2023/02/08 02:21:17;;;;;;;;;;;;;;;8.16;41.71;103248.72;4939651;28;119032;-69
2023/02/08 02:24:04;;;;;;;;;;;;;;;8.13;42.10;103244.53;4957170;28;98547;-67
2023/02/08 02:26:45;;;;;;;;;;;;;;;8.09;42.11;103238.69;4956847;28;98109;-67
2023/02/08 02:29:38;;;;;;;;;;;;;;;8.06;41.77;103238.25;4959909;28;98260;-67
2023/02/08 02:32:35;;;;;;;;;;;;;;;8.03;41.70;103241.28;4955847;28;99287;-67
2023/02/08 02:35:52;;;;;;;;;;;;;;;8.00;41.85;103234.41;4929431;28;122714;-67
2023/02/08 02:38:39;;;;;;;;;;;;;;;7.97;41.65;103242.00;4923594;28;98135;-66
2023/02/08 02:43:40;;;;;;;;;;;;;;;7.94;41.73;103240.53;4957075;28;98558;-67
2023/02/08 02:44:21;;;;;;;;;;;;;;;7.92;41.71;103252.47;4960085;28;98540;-67
2023/02/08 02:46:51;;;;;;;;;;;;;;;7.90;42.03;103247.28;4958981;28;99208;-67
2023/02/08 02:49:25;;;;;;;;;;;;;;;7.90;41.78;103246.44;4948545;28;97959;-67
2023/02/08 02:52:01;;;;;;;;;;;;;;;7.87;41.99;103244.97;4944728;28;107756;-67
2023/02/08 02:54:45;;;;;;;;;;;;;;;7.85;42.13;103245.13;4947517;28;99993;-67
2023/02/08 02:57:14;;;;;;;;;;;;;;;7.83;41.99;103247.19;4943429;28;99569;-67
2023/02/08 02:59:41;;;;;;;;;;;;;;;7.82;41.63;103250.88;4944770;28;98001;-67
2023/02/08 03:02:08;;;;;;;;;;;;;;;7.81;41.75;103249.19;4947841;28;98052;-67
2023/02/08 03:04:37;;;;;;;;;;;;;;;7.81;41.99;103248.38;4950062;28;121230;-67
2023/02/08 03:07:18;;;;;;;;;;;;;;;7.79;41.87;103251.25;4958660;28;100674;-67
2023/02/08 03:10:01;;;;;;;;;;;;;;;7.76;41.83;103245.41;4962023;28;97858;-67
2023/02/08 03:12:55;;;;;;;;;;;;;;;7.77;42.03;103252.44;4940944;28;113433;-67
2023/02/08 03:15:46;;;;;;;;;;;;;;;7.75;42.05;103251.78;4959635;28;98010;-67
2023/02/08 03:18:44;;;;;;;;;;;;;;;7.73;41.99;103251.97;4961808;28;99504;-67
2023/02/08 03:22:05;;;;;;;;;;;;;;;7.72;41.68;103258.34;4959545;28;98075;-66
2023/02/08 03:24:41;;;;;;;;;;;;;;;7.70;42.06;103257.69;4948052;28;98882;-66
2023/02/08 03:27:14;;;;;;;;;;;;;;;7.70;41.80;103270.28;4943046;28;126802;-67
2023/02/08 03:29:43;;;;;;;;;;;;;;;7.68;41.61;103273.16;4941400;28;127807;-67
2023/02/08 03:32:35;;;;;;;;;;;;;;;7.67;42.09;103265.28;4962816;28;98027;-67
2023/02/08 03:35:10;;;;;;;;;;;;;;;7.65;41.94;103276.19;4937578;28;98200;-67
2023/02/08 03:37:48;;;;;;;;;;;;;;;7.65;41.79;103278.88;4945934;28;98923;-67
2023/02/08 03:40:27;;;;;;;;;;;;;;;7.65;41.89;103280.72;4939855;28;125666;-67
2023/02/08 03:42:54;;;;;;;;;;;;;;;7.64;42.07;103290.63;4925185;28;98306;-67
2023/02/08 03:45:28;;;;;;;;;;;;;;;7.63;41.74;103297.88;4940304;28;99402;-67
2023/02/08 03:47:54;;;;;;;;;;;;;;;7.61;41.74;103289.13;4954174;28;125978;-67
2023/02/08 03:50:20;;;;;;;;;;;;;;;7.61;41.82;103296.34;4925114;28;98334;-67
2023/02/08 03:52:47;;;;;;;;;;;;;;;7.59;41.98;103288.50;4941677;28;125633;-67
2023/02/08 03:55:15;;;;;;;;;;;;;;;7.59;42.14;103293.88;4958925;28;112439;-67
2023/02/08 03:57:49;;;;;;;;;;;;;;;7.59;41.95;103299.25;4941661;28;116160;-67
2023/02/08 04:00:16;;;;;;;;;;;;;;;7.58;41.67;103294.88;4959257;28;98445;-67
2023/02/08 04:03:03;;;;;;;;;;;;;;;7.57;41.83;103295.88;4942996;28;115801;-67
2023/02/08 04:05:29;;;;;;;;;;;;;;;7.56;41.81;103294.22;4855658;28;99485;-67
2023/02/08 04:07:55;;;;;;;;;;;;;;;7.56;42.08;103299.59;4959882;28;111925;-67
2023/02/08 04:10:21;;;;;;;;;;;;;;;7.55;41.68;103295.25;4958577;28;98546;-67
2023/02/08 04:12:47;;;;;;;;;;;;;;;7.54;41.79;103287.34;4939286;28;97992;-67
2023/02/08 04:15:13;;;;;;;;;;;;;;;7.53;41.54;103291.06;4940916;28;117355;-67
2023/02/08 04:17:39;;;;;;;;;;;;;;;7.53;41.77;103291.06;4957727;28;127467;-67
2023/02/08 04:20:05;;;;;;;;;;;;;;;7.52;41.79;103292.06;4958558;28;126525;-67
2023/02/08 04:22:32;;;;;;;;;;;;;;;7.51;41.84;103291.25;4957923;28;112511;-67
2023/02/08 04:24:58;;;;;;;;;;;;;;;7.51;42.20;103295.78;4940827;28;97971;-70
2023/02/08 04:27:24;;;;;;;;;;;;;;;7.51;41.87;103291.25;4941987;28;128918;-67
2023/02/08 04:29:50;;;;;;;;;;;;;;;7.50;41.65;103283.34;4925099;28;126070;-67
2023/02/08 04:32:16;;;;;;;;;;;;;;;7.50;41.68;103280.66;4953670;28;127974;-66
2023/02/08 04:34:42;;;;;;;;;;;;;;;7.49;41.77;103279.00;4961727;28;116652;-67
2023/02/08 04:37:08;;;;;;;;;;;;;;;7.48;41.65;103277.34;4958212;28;104827;-66
2023/02/08 04:39:34;;;;;;;;;;;;;;;7.47;41.70;103279.19;4960884;28;98168;-66
2023/02/08 04:41:59;;;;;;;;;;;;;;;7.47;41.87;103281.88;4961695;28;127044;-66
2023/02/08 04:44:26;;;;;;;;;;;;;;;7.47;41.77;103281.03;4956590;28;117551;-66
2023/02/08 04:46:52;;;;;;;;;;;;;;;7.46;41.49;103269.44;4945413;28;97980;-66
2023/02/08 04:49:17;;;;;;;;;;;;;;;7.46;41.72;103271.31;4957485;28;114379;-66
2023/02/08 04:51:43;;;;;;;;;;;;;;;7.47;41.69;103275.69;4924961;28;129711;-67
2023/02/08 04:54:09;;;;;;;;;;;;;;;7.46;41.70;103268.63;4959032;28;116419;-67
2023/02/08 04:56:35;;;;;;;;;;;;;;;7.45;41.68;103273.16;4942038;28;127903;-66
2023/02/08 04:59:01;;;;;;;;;;;;;;;7.45;41.86;103277.69;4943119;28;126520;-66
2023/02/08 05:01:27;;;;;;;;;;;;;;;7.45;42.09;103277.69;4939127;28;125148;-67
2023/02/08 05:03:53;;;;;;;;;;;;;;;7.46;41.58;103271.31;4920988;28;111959;-67
2023/02/08 05:06:19;;;;;;;;;;;;;;;7.45;41.58;103273.16;4959224;28;98348;-67
2023/02/08 05:08:45;;;;;;;;;;;;;;;7.45;41.84;103270.47;4937072;28;128073;-67
2023/02/08 05:11:11;;;;;;;;;;;;;;;7.45;41.69;103266.94;4940590;28;127404;-67
2023/02/08 05:13:37;;;;;;;;;;;;;;;7.43;41.63;103275.19;4942970;28;98452;-67
2023/02/08 05:16:03;;;;;;;;;;;;;;;7.44;41.64;103267.97;4944112;28;99653;-67
2023/02/08 05:18:29;;;;;;;;;;;;;;;7.44;41.96;103271.50;4957054;28;115935;-67
2023/02/08 05:20:56;;;;;;;;;;;;;;;7.44;41.64;103271.50;4927232;28;127673;-67
2023/02/08 05:23:22;;;;;;;;;;;;;;;7.45;41.75;103275.84;4900935;28;99062;-67
2023/02/08 05:25:48;;;;;;;;;;;;;;;7.49;41.98;103270.94;4921584;28;98633;-67
2023/02/08 05:28:14;;;;;;;;;;;;;;;7.55;41.72;103265.72;4934487;28;127911;-67
2023/02/08 05:30:40;;;;;;;;;;;;;;;7.62;42.04;103268.50;4919295;28;98254;-67
2023/02/08 05:33:06;;;;;;;;;;;;;;;7.66;42.21;103261.75;4938082;28;106633;-67
2023/02/08 05:35:32;;;;;;;;;;;;;;;7.71;41.76;103261.22;4934293;28;128951;-67
2023/02/08 05:37:57;;;;;;;;;;;;;;;7.74;42.04;103267.06;4933447;28;128691;-68
2023/02/08 05:40:23;;;;;;;;;;;;;;;7.76;41.86;103259.66;4932999;28;125879;-68
2023/02/08 05:42:49;;;;;;;;;;;;;;;7.80;41.88;103263.66;4935979;28;117543;-67
2023/02/08 05:45:15;;;;;;;;;;;;;;;7.82;41.58;103263.47;4902046;28;116187;-67
2023/02/08 05:47:41;;;;;;;;;;;;;;;7.84;42.04;103274.88;4937130;28;116809;-67
2023/02/08 05:50:07;;;;;;;;;;;;;;;7.85;41.63;103272.00;4931134;28;98857;-67
2023/02/08 05:52:33;;;;;;;;;;;;;;;7.86;41.67;103273.69;4938625;28;98070;-67
2023/02/08 05:54:59;;;;;;;;;;;;;;;7.86;42.01;103273.69;4923016;28;128305;-67
2023/02/08 05:57:25;;;;;;;;;;;;;;;7.87;41.90;103278.03;4918665;28;129668;-67
2023/02/08 05:59:51;;;;;;;;;;;;;;;7.87;41.88;103286.09;4937476;28;107078;-67
2023/02/08 06:02:17;;;;;;;;;;;;;;;7.87;41.79;103275.34;4936392;28;113755;-67
2023/02/08 06:04:43;;;;;;;;;;;;;;;7.87;41.67;103280.72;4933265;28;128613;-67
2023/02/08 06:07:09;;;;;;;;;;;;;;;7.87;41.83;103277.19;4909812;28;98149;-67
2023/02/08 06:09:35;;;;;;;;;;;;;;;7.86;41.84;103281.75;4920427;28;127498;-67
2023/02/08 06:12:00;;;;;;;;;;;;;;;7.85;41.60;103280.03;4938352;28;97873;-67
2023/02/08 06:14:26;;;;;;;;;;;;;;;7.84;41.52;103278.38;4936830;28;129886;-67
2023/02/08 06:16:52;;;;;;;;;;;;;;;7.84;42.01;103283.75;4921288;28;127882;-67
2023/02/08 06:19:18;;;;;;;;;;;;;;;7.85;41.58;103292.66;4942177;28;127471;-67
2023/02/08 06:21:44;;;;;;;;;;;;;;;7.83;41.92;103298.22;4943429;28;116843;-67
2023/02/08 06:24:10;;;;;;;;;;;;;;;7.83;41.70;103294.69;4959495;28;128275;-67
2023/02/08 06:26:36;;;;;;;;;;;;;;;7.82;42.06;103298.38;4961305;28;98338;-67
2023/02/08 06:29:02;;;;;;;;;;;;;;;7.82;41.79;103290.31;4959238;28;127339;-67
2023/02/08 06:31:28;;;;;;;;;;;;;;;7.82;41.92;103298.38;4944072;28;117887;-67
2023/02/08 06:33:54;;;;;;;;;;;;;;;7.80;42.02;103301.25;4938949;28;125743;-67
2023/02/08 06:36:20;;;;;;;;;;;;;;;7.81;41.96;103304.75;4956114;28;128894;-67
2023/02/08 06:38:46;;;;;;;;;;;;;;;7.80;41.56;103301.25;4925881;28;102146;-67
2023/02/08 06:41:12;;;;;;;;;;;;;;;7.81;41.46;103313.66;4959962;28;116590;-67
2023/02/08 06:43:39;;;;;;;;;;;;;;;7.82;41.67;103315.34;4958722;28;128272;-67
2023/02/08 06:46:07;;;;;;;;;;;;;;;7.82;41.45;103315.34;4945599;28;100044;-67
2023/02/08 06:48:36;;;;;;;;;;;;;;;7.84;42.14;103312.47;4959709;28;98259;-67
2023/02/08 06:51:02;;;;;;;;;;;;;;;7.84;41.67;103315.97;4926853;28;97936;-67
2023/02/08 06:53:28;;;;;;;;;;;;;;;7.85;41.52;103306.06;4924147;28;123459;-67
2023/02/08 06:55:53;;;;;;;;;;;;;;;7.87;41.86;103309.44;4926678;28;98335;-67
2023/02/08 06:58:19;;;;;;;;;;;;;;;7.89;41.46;103307.38;4939852;28;113836;-67
2023/02/08 07:00:45;;;;;;;;;;;;;;;7.91;41.56;103307.22;4958675;28;118287;-67
2023/02/08 07:03:12;;;;;;;;;;;;;;;7.93;41.33;103308.69;4958700;28;128222;-67
2023/02/08 07:05:38;;;;;;;;;;;;;;;7.95;41.86;103309.34;4939888;28;112922;-67
2023/02/08 07:08:04;;;;;;;;;;;;;;;7.97;41.57;103315.38;4956848;28;126273;-66
2023/02/08 07:10:30;;;;;;;;;;;;;;;8.01;41.71;103313.16;4959568;28;115891;-66
2023/02/08 07:12:56;;;;;;;;;;;;;;;8.04;41.86;103310.13;4958825;28;128301;-66
2023/02/08 07:15:22;;;;;;;;;;;;;;;8.06;41.37;103313.47;4958680;28;127306;-66
2023/02/08 07:17:48;;;;;;;;;;;;;;;8.12;41.71;103313.56;4958969;28;125644;-67
2023/02/08 07:20:14;;;;;;;;;;;;;;;8.19;41.29;103310.97;4960942;28;116764;-66
2023/02/08 07:22:40;;;;;;;;;;;;;;;8.24;41.53;103303.19;4943994;28;105996;-66
2023/02/08 07:25:06;;;;;;;;;;;;;;;8.31;41.42;103308.69;4945435;28;126159;-66
2023/02/08 07:27:32;;;;;;;;;;;;;;;8.38;41.06;103306.97;4941746;28;98716;-67
2023/02/08 07:29:58;;;;;;;;;;;;;;;8.47;41.70;103305.03;4942860;28;117496;-67
2023/02/08 07:32:24;;;;;;;;;;;;;;;8.56;40.99;103309.28;4956914;28;127310;-66
2023/02/08 07:34:50;;;;;;;;;;;;;;;8.65;41.10;103312.75;4942624;28;128408;-67
2023/02/08 07:37:16;;;;;;;;;;;;;;;8.75;40.70;103313.28;4945365;28;101178;-66
2023/02/08 07:39:42;;;;;;;;;;;;;;;8.83;41.46;103315.88;4959904;28;118592;-67
2023/02/08 07:42:08;;;;;;;;;;;;;;;8.89;41.19;103303.53;4933039;28;128359;-67
2023/02/08 07:44:37;;;;;;;;;;;;;;;8.98;41.53;103310.47;4945639;28;98466;-66
2023/02/08 07:47:03;;;;;;;;;;;;;;;9.10;40.51;103317.03;4940754;28;126896;-67
2023/02/08 07:49:30;;;;;;;;;;;;;;;9.24;40.42;103320.72;4960306;28;110438;-67
2023/02/08 07:51:55;;;;;;;;;;;;;;;9.41;41.07;103319.47;4940388;28;129147;-67
2023/02/08 07:54:21;;;;;;;;;;;;;;;9.59;41.31;103314.50;4937720;28;128093;-67
2023/02/08 07:56:47;;;;;;;;;;;;;;;9.79;40.39;103308.47;4925190;28;126327;-67
2023/02/08 07:59:13;;;;;;;;;;;;;;;10.00;40.21;103308.44;4939850;28;116389;-67
2023/02/08 08:01:39;;;;;;;;;;;;;;;10.21;40.46;103306.72;4940340;28;127797;-67
2023/02/08 08:04:05;;;;;;;;;;;;;;;10.45;40.12;103311.69;4938326;28;128132;-66
2023/02/08 08:06:31;;;;;;;;;;;;;;;10.73;39.71;103310.81;4960668;28;126354;-66
2023/02/08 08:08:57;;;;;;;;;;;;;;;11.09;39.96;103301.63;4929984;28;117595;-67
2023/02/08 08:11:23;;;;;;;;;;;;;;;11.52;39.65;103308.41;4923303;28;128817;-67
2023/02/08 08:13:49;;;;;;;;;;;;;;;11.90;39.66;103304.28;4930865;28;107276;-67
2023/02/08 08:16:15;;;;;;;;;;;;;;;12.26;39.32;103302.00;4906414;28;98817;-68
2023/02/08 08:18:41;;;;;;;;;;;;;;;12.75;39.11;103306.03;4906400;28;117119;-66
2023/02/08 08:21:07;;;;;;;;;;;;;;;13.27;39.02;103300.63;4922185;28;126936;-67
2023/02/08 08:23:34;;;;;;;;;;;;;;;13.75;38.87;103287.41;4922451;28;98860;-67
2023/02/08 08:26:07;;;;;;;;;;;;;;;14.22;38.77;103292.38;4939502;28;98117;-68
2023/02/08 08:28:33;;;;;;;;;;;;;;;14.67;38.75;103290.28;4923912;28;98327;-67
2023/02/08 08:30:59;;;;;;;;;;;;;;;15.11;38.66;103292.88;4921022;28;128881;-68
2023/02/08 08:33:25;;;;;;;;;;;;;;;15.53;38.25;103292.91;4922879;28;109538;-67
2023/02/08 08:35:51;;;;;;;;;;;;;;;15.94;38.39;103292.03;4923701;28;98226;-67
2023/02/08 08:38:17;;;;;;;;;;;;;;;16.38;38.36;103298.75;4937642;28;98047;-67
2023/02/08 08:40:42;;;;;;;;;;;;;;;16.81;38.25;103289.38;4919297;28;128501;-68
2023/02/08 08:43:08;;;;;;;;;;;;;;;17.27;38.34;103289.44;4909967;28;128640;-67
2023/02/08 08:45:35;;;;;;;;;;;;;;;17.73;38.35;103291.06;4919768;28;126419;-68
2023/02/08 08:48:02;;;;;;;;;;;;;;;18.17;38.05;103290.41;4920365;28;98058;-67
2023/02/08 08:50:28;;;;;;;;;;;;;;;18.56;38.17;103289.31;4920810;28;105665;-67
2023/02/08 08:52:54;;;;;;;;;;;;;;;18.97;38.11;103292.56;4921005;28;128232;-67
2023/02/08 08:55:20;;;;;;;;;;;;;;;19.41;38.34;103297.91;4921213;28;128765;-67
2023/02/08 08:57:45;;;;;;;;;;;;;;;19.84;38.05;103294.22;4920211;28;116947;-69
2023/02/08 09:00:12;;;;;;;;;;;;;;;20.30;38.05;103293.72;4921740;28;127697;-70
2023/02/08 09:02:38;;;;;;;;;;;;;;;20.76;38.13;103293.97;4920197;28;124311;-67
2023/02/08 09:05:06;;;;;;;;;;;;;;;21.23;37.93;103291.06;4906859;28;128464;-67
2023/02/08 09:07:32;;;;;;;;;;;;;;;21.70;38.09;103294.69;4921589;28;98116;-70
2023/02/08 09:09:58;;;;;;;;;;;;;;;22.13;38.04;103298.81;4901682;28;128405;-68
2023/02/08 09:12:24;;;;;;;;;;;;;;;22.55;38.14;103303.88;4906784;28;129375;-71
2023/02/08 09:14:50;;;;;;;;;;;;;;;22.99;38.18;103308.66;4938090;28;125770;-71
2023/02/08 09:17:16;;;;;;;;;;;;;;;23.46;38.25;103307.25;4942816;28;98362;-67
2023/02/08 09:19:42;;;;;;;;;;;;;;;23.90;38.07;103311.84;4928948;28;127888;-68
2023/02/08 09:22:08;;;;;;;;;;;;;;;24.29;38.02;103315.56;4938793;28;130441;-67
2023/02/08 09:24:34;;;;;;;;;;;;;;;24.59;38.07;103322.72;4927474;28;128027;-70
2023/02/08 09:27:00;;;;;;;;;;;;;;;24.76;38.14;103314.78;4928488;28;98064;-68
2023/02/08 09:29:28;;;;;;;;;;;;;;;24.89;38.13;103316.00;4940453;28;119214;-67
2023/02/08 09:31:54;;;;;;;;;;;;;;;25.00;38.46;103314.72;4927233;28;98104;-70
2023/02/08 09:34:20;;;;;;;;;;;;;;;25.11;38.51;103313.50;4941124;28;106597;-69
2023/02/08 09:36:46;;;;;;;;;;;;;;;25.25;38.56;103321.03;4957065;28;105842;-70
2023/02/08 09:39:17;;;;;;;;;;;;;;;25.37;38.38;103313.09;4952237;28;129044;-68
2023/02/08 09:41:43;;;;;;;;;;;;;;;25.49;38.39;103323.69;4938644;28;107124;-70
2023/02/08 09:44:12;;;;;;;;;;;;;;;25.58;38.58;103319.91;4939089;28;98100;-68
2023/02/08 09:46:40;;;;;;;;;;;;;;;25.63;38.59;103325.38;4955675;28;98169;-68
2023/02/08 09:49:17;;;;;;;;;;;;;;;25.62;38.40;103320.13;4941614;28;111810;-67
2023/02/08 09:51:46;;;;;;;;;;;;;;;25.55;38.57;103323.31;4953169;28;125756;-71
2023/02/08 09:54:33;;;;;;;;;;;;;;;25.46;38.89;103316.81;4929698;28;98425;-71
2023/02/08 09:57:00;;;;;;;;;;;;;;;25.41;38.87;103316.91;4929869;28;98098;-68
2023/02/08 09:59:27;;;;;;;;;;;;;;;25.34;39.13;103306.22;4946528;28;100616;-70
2023/02/08 10:02:00;;;;;;;;;;;;;;;25.28;39.40;103298.34;4943732;28;98336;-68
2023/02/08 10:04:40;;;;;;;;;;;;;;;25.13;39.13;103294.69;4943056;28;98135;-69
2023/02/08 10:07:08;;;;;;;;;;;;;;;24.90;39.51;103298.31;4943559;28;98337;-70
2023/02/08 10:09:33;;;;;;;;;;;;;;;24.66;39.62;103290.91;4932524;28;113870;-69
2023/02/08 10:12:09;;;;;;;;;;;;;;;24.39;39.62;103298.97;4944904;28;107914;-70
2023/02/08 10:15:01;;;;;;;;;;;;;;;24.09;39.71;103295.44;4939673;28;98368;-70
2023/02/08 10:17:56;;;;;;;;;;;;;;;23.75;39.60;103290.78;4957222;28;98606;-70
2023/02/08 10:20:27;;;;;;;;;;;;;;;23.39;39.83;103297.69;4937701;28;99456;-69
2023/02/08 10:23:17;;;;;;;;;;;;;;;23.07;40.08;103295.41;4936892;28;123749;-67
2023/02/08 10:25:44;;;;;;;;;;;;;;;22.74;40.08;103282.06;4941063;28;98129;-67
2023/02/08 10:28:23;;;;;;;;;;;;;;;22.49;40.26;103280.28;4923401;28;106478;-71
2023/02/08 10:31:02;;;;;;;;;;;;;;;22.22;40.02;103274.31;4938957;28;100268;-69
2023/02/08 10:33:37;;;;;;;;;;;;;;;21.97;40.13;103277.94;4940128;28;98530;-69
2023/02/08 10:36:06;;;;;;;;;;;;;;;21.71;40.29;103275.19;4942590;28;98613;-67
2023/02/08 10:38:32;;;;;;;;;;;;;;;21.49;40.31;103277.38;4922961;28;103968;-70
2023/02/08 10:41:00;;;;;;;;;;;;;;;21.27;40.26;103274.91;4939742;28;103258;-67
2023/02/08 10:43:29;;;;;;;;;;;;;;;21.05;40.41;103280.59;4936451;28;119380;-67
2023/02/08 10:46:19;;;;;;;;;;;;;;;20.83;40.35;103278.91;4930121;28;123470;-69
2023/02/08 10:49:10;;;;;;;;;;;;;;;20.63;40.38;103287.03;4908993;28;112623;-70
2023/02/08 10:51:36;;;;;;;;;;;;;;;20.43;40.36;103281.44;4956103;28;122515;-67
2023/02/08 10:54:02;;;;;;;;;;;;;;;20.27;40.37;103281.34;4925679;28;123219;-70
2023/02/08 10:56:56;;;;;;;;;;;;;;;20.15;40.25;103277.19;4922263;28;98226;-67
2023/02/08 10:59:26;;;;;;;;;;;;;;;20.04;40.25;103281.75;4937354;28;98038;-67
2023/02/08 11:01:52;;;;;;;;;;;;;;;19.99;40.16;103262.59;4938477;28;105379;-69
2023/02/08 11:04:18;;;;;;;;;;;;;;;19.97;40.25;103262.03;4921049;28;121823;-68
2023/02/08 11:06:45;;;;;;;;;;;;;;;20.00;40.15;103262.34;4928014;28;97975;-67
2023/02/08 11:09:28;;;;;;;;;;;;;;;20.07;40.14;103265.63;4926864;28;98212;-69
2023/02/08 11:11:54;;;;;;;;;;;;;;;20.22;39.99;103261.34;4941248;28;98304;-69
2023/02/08 11:14:36;;;;;;;;;;;;;;;20.46;39.78;103259.00;4939584;28;116376;-67
2023/02/08 11:17:02;;;;;;;;;;;;;;;20.84;39.54;103253.16;4931071;28;99235;-68
2023/02/08 11:19:41;;;;;;;;;;;;;;;21.18;39.16;103246.34;4926011;28;118343;-69
2023/02/08 11:22:15;;;;;;;;;;;;;;;21.45;39.19;103243.38;4926964;28;98405;-67
2023/02/08 11:24:42;;;;;;;;;;;;;;;21.56;39.16;103239.53;4930672;28;100153;-70
2023/02/08 11:27:27;;;;;;;;;;;;;;;21.44;39.43;103234.31;4944006;28;98105;-69
2023/02/08 11:30:14;;;;;;;;;;;;;;;21.27;39.65;103245.53;4962490;28;97764;-70
2023/02/08 11:32:41;;;;;;;;;;;;;;;21.09;39.59;103243.31;4961128;28;98132;-70
2023/02/08 11:35:19;;;;;;;;;;;;;;;20.94;39.69;103243.28;4928266;28;98124;-67
2023/02/08 11:37:50;;;;;;;;;;;;;;;20.77;39.79;103247.09;4955840;28;98940;-69
2023/02/08 11:40:22;;;;;;;;;;;;;;;20.64;39.87;103244.03;4943088;28;98261;-67
2023/02/08 11:42:48;;;;;;;;;;;;;;;20.49;40.04;103245.63;4959314;28;105705;-70
2023/02/08 11:45:22;;;;;;;;;;;;;;;20.33;39.91;103247.44;4942455;28;97942;-68
2023/02/08 11:47:48;;;;;;;;;;;;;;;20.13;40.05;103244.59;4928259;28;123965;-70
2023/02/08 11:50:26;;;;;;;;;;;;;;;19.90;40.25;103243.09;4943200;28;98154;-69
2023/02/08 11:52:56;;;;;;;;;;;;;;;19.61;40.22;103242.59;4927098;28;98036;-66
2023/02/08 11:55:24;;;;;;;;;;;;;;;19.29;40.47;103242.56;4958711;28;125594;-70
2023/02/08 11:57:56;;;;;;;;;;;;;;;18.99;40.65;103238.47;4923498;28;104395;-69
2023/02/08 12:00:35;;;;;;;;;;;;;;;18.72;40.62;103249.38;4942444;28;109454;-67
2023/02/08 12:03:24;;;;;;;;;;;;;;;18.43;40.91;103232.34;4944167;28;98376;-69
2023/02/08 12:06:27;;;;;;;;;;;;;;;18.16;40.94;103232.25;4924319;28;98013;-67
2023/02/08 12:09:09;;;;;;;;;;;;;;;17.86;40.98;103230.72;4960670;28;98128;-67
2023/02/08 12:11:47;;;;;;;;;;;;;;;17.63;41.00;103231.72;4959643;28;98110;-68
2023/02/08 12:14:22;;;;;;;;;;;;;;;17.40;40.82;103237.31;4956967;27;124828;-68
2023/02/08 12:17:01;;;;;;;;;;;;;;;17.16;41.15;103226.56;4960487;28;98406;-68
2023/02/08 12:19:55;;;;;;;;;;;;;;;16.93;41.26;103222.03;4959019;28;99015;-68
2023/02/08 12:22:29;;;;;;;;;;;;;;;16.70;41.18;103230.28;4958465;28;113067;-66
2023/02/08 12:25:28;;;;;;;;;;;;;;;16.50;41.20;103221.69;4943933;28;99506;-66
2023/02/08 12:28:14;;;;;;;;;;;;;;;16.28;41.20;103211.47;4959611;28;98146;-66
2023/02/08 12:30:52;;;;;;;;;;;;;;;16.10;41.24;103219.75;4958134;28;119582;-68
2023/02/08 12:33:36;;;;;;;;;;;;;;;15.91;41.35;103206.28;4953071;28;109088;-68
2023/02/08 12:36:05;;;;;;;;;;;;;;;15.77;41.16;103212.22;4938997;28;98374;-68
2023/02/08 12:41:53;;;;;;;;;;;;;;;15.44;41.48;103206.25;4936659;28;97910;-67
2023/02/08 12:44:36;;;;;;;;;;;;;;;15.30;41.31;103195.81;4959509;28;98286;-68
2023/02/08 12:47:46;;;;;;;;;;;;;;;15.17;41.53;103207.75;4924408;28;125665;-67
2023/02/08 12:50:31;;;;;;;;;;;;;;;15.01;41.17;103195.63;4957723;28;98229;-67
2023/02/08 12:53:00;;;;;;;;;;;;;;;14.88;41.47;103195.81;4959528;28;99392;-68
2023/02/08 12:55:36;;;;;;;;;;;;;;;14.77;41.18;103186.56;4939766;28;98137;-67